sensor_id;sensor_type;location;lat;lon;timestamp;temperature;humidity
19999;DHT22;10160;50.926;4.374;2024-02-26T00:00:31;8.30;99.90
19999;DHT22;10160;50.926;4.374;2024-02-26T00:02:57;8.10;99.90
19999;DHT22;10160;50.926;4.374;2024-02-26T00:05:23;8.20;99.90
19999;DHT22;10160;50.926;4.374;2024-02-26T00:07:49;8.30;99.90
19999;DHT22;10160;50.926;4.374;2024-02-26T00:10:15;8.50;99.90
19999;DHT22;10160;50.926;4.374;2024-02-26T00:12:41;8.30;99.90
19999;DHT22;10160;50.926;4.374;2024-02-26T00:15:07;8.30;99.90
19999;DHT22;10160;50.926;4.374;2024-02-26T00:17:33;8.30;99.90
19999;DHT22;10160;50.926;4.374;2024-02-26T00:19:59;8.10;99.90
19999;DHT22;10160;50.926;4.374;2024-02-26T00:22:26;8.10;99.90
19999;DHT22;10160;50.926;4.374;2024-02-26T00:24:52;8.10;99.90
19999;DHT22;10160;50.926;4.374;2024-02-26T00:27:18;8.20;99.90
19999;DHT22;10160;50.926;4.374;2024-02-26T00:29:43;8.20;99.90
19999;DHT22;10160;50.926;4.374;2024-02-26T00:32:09;8.30;99.90
19999;DHT22;10160;50.926;4.374;2024-02-26T00:34:35;8.30;99.90
19999;DHT22;10160;50.926;4.374;2024-02-26T00:37:01;8.10;99.90
19999;DHT22;10160;50.926;4.374;2024-02-26T00:39:27;7.90;99.90
19999;DHT22;10160;50.926;4.374;2024-02-26T00:41:53;8.00;99.90
19999;DHT22;10160;50.926;4.374;2024-02-26T00:44:18;8.20;99.90
19999;DHT22;10160;50.926;4.374;2024-02-26T00:46:44;8.10;99.90
19999;DHT22;10160;50.926;4.374;2024-02-26T00:49:09;8.00;99.90
19999;DHT22;10160;50.926;4.374;2024-02-26T00:51:35;7.90;99.90
19999;DHT22;10160;50.926;4.374;2024-02-26T00:54:01;8.00;99.90
19999;DHT22;10160;50.926;4.374;2024-02-26T00:56:27;8.00;99.90
19999;DHT22;10160;50.926;4.374;2024-02-26T00:58:52;8.00;99.90
19999;DHT22;10160;50.926;4.374;2024-02-26T01:01:18;8.00;99.90
19999;DHT22;10160;50.926;4.374;2024-02-26T01:03:44;7.90;99.90
19999;DHT22;10160;50.926;4.374;2024-02-26T01:06:09;7.90;99.90
19999;DHT22;10160;50.926;4.374;2024-02-26T01:08:35;8.00;99.90
19999;DHT22;10160;50.926;4.374;2024-02-26T01:11:01;8.10;99.90
19999;DHT22;10160;50.926;4.374;2024-02-26T01:13:27;8.00;99.90
19999;DHT22;10160;50.926;4.374;2024-02-26T01:15:52;7.90;99.90
19999;DHT22;10160;50.926;4.374;2024-02-26T01:18:18;8.00;99.90
19999;DHT22;10160;50.926;4.374;2024-02-26T01:20:43;7.80;99.90
19999;DHT22;10160;50.926;4.374;2024-02-26T01:23:09;8.00;99.90
19999;DHT22;10160;50.926;4.374;2024-02-26T01:25:35;7.90;99.90
19999;DHT22;10160;50.926;4.374;2024-02-26T01:28:00;7.80;99.90
19999;DHT22;10160;50.926;4.374;2024-02-26T01:30:26;7.70;99.90
19999;DHT22;10160;50.926;4.374;2024-02-26T01:32:51;7.80;99.90
19999;DHT22;10160;50.926;4.374;2024-02-26T01:35:17;7.80;99.90
19999;DHT22;10160;50.926;4.374;2024-02-26T01:37:43;7.80;99.90
19999;DHT22;10160;50.926;4.374;2024-02-26T01:40:09;7.90;99.90
19999;DHT22;10160;50.926;4.374;2024-02-26T01:42:34;7.80;99.90
19999;DHT22;10160;50.926;4.374;2024-02-26T01:45:01;7.60;99.90
19999;DHT22;10160;50.926;4.374;2024-02-26T01:47:26;7.60;99.90
19999;DHT22;10160;50.926;4.374;2024-02-26T01:49:53;7.60;99.90
19999;DHT22;10160;50.926;4.374;2024-02-26T01:52:19;7.60;99.90
19999;DHT22;10160;50.926;4.374;2024-02-26T01:54:46;7.60;99.90
19999;DHT22;10160;50.926;4.374;2024-02-26T01:57:12;7.70;99.90
19999;DHT22;10160;50.926;4.374;2024-02-26T01:59:39;7.80;99.90
19999;DHT22;10160;50.926;4.374;2024-02-26T02:02:07;7.90;99.90
19999;DHT22;10160;50.926;4.374;2024-02-26T02:04:35;7.80;99.90
19999;DHT22;10160;50.926;4.374;2024-02-26T02:07:01;7.90;99.90
19999;DHT22;10160;50.926;4.374;2024-02-26T02:09:28;7.80;99.90
19999;DHT22;10160;50.926;4.374;2024-02-26T02:11:54;7.80;99.90
19999;DHT22;10160;50.926;4.374;2024-02-26T02:14:20;7.80;99.90
19999;DHT22;10160;50.926;4.374;2024-02-26T02:16:47;7.70;99.90
19999;DHT22;10160;50.926;4.374;2024-02-26T02:19:13;7.90;99.90
19999;DHT22;10160;50.926;4.374;2024-02-26T02:21:38;7.70;99.90
19999;DHT22;10160;50.926;4.374;2024-02-26T02:24:04;7.80;99.90
19999;DHT22;10160;50.926;4.374;2024-02-26T02:26:30;7.70;99.90
19999;DHT22;10160;50.926;4.374;2024-02-26T02:28:56;7.70;99.90
19999;DHT22;10160;50.926;4.374;2024-02-26T02:31:21;7.90;99.90
19999;DHT22;10160;50.926;4.374;2024-02-26T02:33:48;7.90;99.90
19999;DHT22;10160;50.926;4.374;2024-02-26T02:36:14;8.00;99.90
19999;DHT22;10160;50.926;4.374;2024-02-26T02:38:49;8.00;99.90
19999;DHT22;10160;50.926;4.374;2024-02-26T02:41:15;8.00;99.90
19999;DHT22;10160;50.926;4.374;2024-02-26T02:43:41;8.00;99.90
19999;DHT22;10160;50.926;4.374;2024-02-26T02:46:07;8.00;99.90
19999;DHT22;10160;50.926;4.374;2024-02-26T02:48:32;8.00;99.90
19999;DHT22;10160;50.926;4.374;2024-02-26T02:50:58;8.00;99.90
19999;DHT22;10160;50.926;4.374;2024-02-26T02:53:24;7.80;99.90
19999;DHT22;10160;50.926;4.374;2024-02-26T02:55:49;7.90;99.90
19999;DHT22;10160;50.926;4.374;2024-02-26T02:58:15;7.90;99.90
19999;DHT22;10160;50.926;4.374;2024-02-26T03:00:40;7.90;99.90
19999;DHT22;10160;50.926;4.374;2024-02-26T03:03:06;7.90;99.90
19999;DHT22;10160;50.926;4.374;2024-02-26T03:05:32;7.90;99.90
19999;DHT22;10160;50.926;4.374;2024-02-26T03:08:00;7.80;99.90
19999;DHT22;10160;50.926;4.374;2024-02-26T03:10:26;7.60;99.90
19999;DHT22;10160;50.926;4.374;2024-02-26T03:12:52;7.40;99.90
19999;DHT22;10160;50.926;4.374;2024-02-26T03:15:17;7.60;99.90
19999;DHT22;10160;50.926;4.374;2024-02-26T03:17:43;7.70;99.90
19999;DHT22;10160;50.926;4.374;2024-02-26T03:20:09;7.70;99.90
19999;DHT22;10160;50.926;4.374;2024-02-26T03:22:35;7.60;99.90
19999;DHT22;10160;50.926;4.374;2024-02-26T03:25:01;7.70;99.90
19999;DHT22;10160;50.926;4.374;2024-02-26T03:27:26;7.90;99.90
19999;DHT22;10160;50.926;4.374;2024-02-26T03:29:52;7.90;99.90
19999;DHT22;10160;50.926;4.374;2024-02-26T03:32:18;7.90;99.90
19999;DHT22;10160;50.926;4.374;2024-02-26T03:34:44;7.90;99.90
19999;DHT22;10160;50.926;4.374;2024-02-26T03:37:09;7.90;99.90
19999;DHT22;10160;50.926;4.374;2024-02-26T03:39:36;7.90;99.90
19999;DHT22;10160;50.926;4.374;2024-02-26T03:42:02;7.80;99.90
19999;DHT22;10160;50.926;4.374;2024-02-26T03:44:28;7.80;99.90
19999;DHT22;10160;50.926;4.374;2024-02-26T03:46:53;7.80;99.90
19999;DHT22;10160;50.926;4.374;2024-02-26T03:49:19;7.80;99.90
19999;DHT22;10160;50.926;4.374;2024-02-26T03:51:45;7.80;99.90
19999;DHT22;10160;50.926;4.374;2024-02-26T03:54:10;7.80;99.90
19999;DHT22;10160;50.926;4.374;2024-02-26T03:56:36;7.90;99.90
19999;DHT22;10160;50.926;4.374;2024-02-26T03:59:01;7.70;99.90
19999;DHT22;10160;50.926;4.374;2024-02-26T04:01:28;7.80;99.90
19999;DHT22;10160;50.926;4.374;2024-02-26T04:03:54;7.90;99.90
19999;DHT22;10160;50.926;4.374;2024-02-26T04:06:19;7.80;99.90
19999;DHT22;10160;50.926;4.374;2024-02-26T04:08:46;7.90;99.90
19999;DHT22;10160;50.926;4.374;2024-02-26T04:11:12;7.90;99.90
19999;DHT22;10160;50.926;4.374;2024-02-26T04:13:38;7.90;99.90
19999;DHT22;10160;50.926;4.374;2024-02-26T04:16:07;7.80;99.90
19999;DHT22;10160;50.926;4.374;2024-02-26T04:18:33;7.90;99.90
19999;DHT22;10160;50.926;4.374;2024-02-26T04:20:59;7.80;99.90
19999;DHT22;10160;50.926;4.374;2024-02-26T04:23:24;7.80;99.90
19999;DHT22;10160;50.926;4.374;2024-02-26T04:25:50;7.80;99.90
19999;DHT22;10160;50.926;4.374;2024-02-26T04:28:16;7.60;99.90
19999;DHT22;10160;50.926;4.374;2024-02-26T04:30:41;7.70;99.90
19999;DHT22;10160;50.926;4.374;2024-02-26T04:33:07;7.70;99.90
19999;DHT22;10160;50.926;4.374;2024-02-26T04:35:33;7.50;99.90
19999;DHT22;10160;50.926;4.374;2024-02-26T04:38:00;7.60;99.90
19999;DHT22;10160;50.926;4.374;2024-02-26T04:40:26;7.70;99.90
19999;DHT22;10160;50.926;4.374;2024-02-26T04:42:52;7.80;99.90
19999;DHT22;10160;50.926;4.374;2024-02-26T04:45:17;7.60;99.90
19999;DHT22;10160;50.926;4.374;2024-02-26T04:47:43;7.70;99.90
19999;DHT22;10160;50.926;4.374;2024-02-26T04:50:08;7.80;99.90
19999;DHT22;10160;50.926;4.374;2024-02-26T04:52:34;7.80;99.90
19999;DHT22;10160;50.926;4.374;2024-02-26T04:55:00;7.50;99.90
19999;DHT22;10160;50.926;4.374;2024-02-26T04:57:26;7.50;99.90
19999;DHT22;10160;50.926;4.374;2024-02-26T04:59:51;7.50;99.90
19999;DHT22;10160;50.926;4.374;2024-02-26T05:02:17;7.50;99.90
19999;DHT22;10160;50.926;4.374;2024-02-26T05:04:43;7.40;99.90
19999;DHT22;10160;50.926;4.374;2024-02-26T05:07:09;7.50;99.90
19999;DHT22;10160;50.926;4.374;2024-02-26T05:09:34;7.60;99.90
19999;DHT22;10160;50.926;4.374;2024-02-26T05:12:00;7.70;99.90
19999;DHT22;10160;50.926;4.374;2024-02-26T05:14:26;7.90;99.90
19999;DHT22;10160;50.926;4.374;2024-02-26T05:16:51;7.80;99.90
19999;DHT22;10160;50.926;4.374;2024-02-26T05:19:17;7.60;99.90
19999;DHT22;10160;50.926;4.374;2024-02-26T05:21:43;7.50;99.90
19999;DHT22;10160;50.926;4.374;2024-02-26T05:24:10;7.30;99.90
19999;DHT22;10160;50.926;4.374;2024-02-26T05:26:35;7.50;99.90
19999;DHT22;10160;50.926;4.374;2024-02-26T05:29:01;7.70;99.90
19999;DHT22;10160;50.926;4.374;2024-02-26T05:31:27;7.70;99.90
19999;DHT22;10160;50.926;4.374;2024-02-26T05:33:54;7.70;99.90
19999;DHT22;10160;50.926;4.374;2024-02-26T05:36:22;7.80;99.90
19999;DHT22;10160;50.926;4.374;2024-02-26T05:38:49;7.70;99.90
19999;DHT22;10160;50.926;4.374;2024-02-26T05:41:18;7.60;99.90
19999;DHT22;10160;50.926;4.374;2024-02-26T05:43:49;7.70;99.90
19999;DHT22;10160;50.926;4.374;2024-02-26T05:46:17;7.80;99.90
19999;DHT22;10160;50.926;4.374;2024-02-26T05:48:43;7.80;99.90
19999;DHT22;10160;50.926;4.374;2024-02-26T05:51:09;7.80;99.90
19999;DHT22;10160;50.926;4.374;2024-02-26T05:53:35;7.80;99.90
19999;DHT22;10160;50.926;4.374;2024-02-26T05:56:01;7.80;99.90
19999;DHT22;10160;50.926;4.374;2024-02-26T05:58:26;7.80;99.90
19999;DHT22;10160;50.926;4.374;2024-02-26T06:00:52;7.80;99.90
19999;DHT22;10160;50.926;4.374;2024-02-26T06:03:17;7.80;99.90
19999;DHT22;10160;50.926;4.374;2024-02-26T06:05:43;7.90;99.90
19999;DHT22;10160;50.926;4.374;2024-02-26T06:08:09;7.90;99.90
19999;DHT22;10160;50.926;4.374;2024-02-26T06:10:34;7.70;99.90
19999;DHT22;10160;50.926;4.374;2024-02-26T06:13:00;7.80;99.90
19999;DHT22;10160;50.926;4.374;2024-02-26T06:15:26;7.80;99.90
19999;DHT22;10160;50.926;4.374;2024-02-26T06:17:51;7.80;99.90
19999;DHT22;10160;50.926;4.374;2024-02-26T06:20:17;7.80;99.90
19999;DHT22;10160;50.926;4.374;2024-02-26T06:22:42;7.80;99.90
19999;DHT22;10160;50.926;4.374;2024-02-26T06:25:08;7.80;99.90
19999;DHT22;10160;50.926;4.374;2024-02-26T06:27:34;7.60;99.90
19999;DHT22;10160;50.926;4.374;2024-02-26T06:30:00;7.60;99.90
19999;DHT22;10160;50.926;4.374;2024-02-26T06:32:26;7.80;99.90
19999;DHT22;10160;50.926;4.374;2024-02-26T06:34:54;7.70;99.90
19999;DHT22;10160;50.926;4.374;2024-02-26T06:37:22;7.70;99.90
19999;DHT22;10160;50.926;4.374;2024-02-26T06:39:48;7.70;99.90
19999;DHT22;10160;50.926;4.374;2024-02-26T06:42:17;7.60;99.90
19999;DHT22;10160;50.926;4.374;2024-02-26T06:44:43;7.70;99.90
19999;DHT22;10160;50.926;4.374;2024-02-26T06:47:09;7.60;99.90
19999;DHT22;10160;50.926;4.374;2024-02-26T06:49:37;7.60;99.90
19999;DHT22;10160;50.926;4.374;2024-02-26T06:52:02;7.70;99.90
19999;DHT22;10160;50.926;4.374;2024-02-26T06:54:28;7.80;99.90
19999;DHT22;10160;50.926;4.374;2024-02-26T06:56:54;7.70;99.90
19999;DHT22;10160;50.926;4.374;2024-02-26T06:59:19;7.80;99.90
19999;DHT22;10160;50.926;4.374;2024-02-26T07:01:45;7.70;99.90
19999;DHT22;10160;50.926;4.374;2024-02-26T07:04:11;7.60;99.90
19999;DHT22;10160;50.926;4.374;2024-02-26T07:06:37;7.60;99.90
19999;DHT22;10160;50.926;4.374;2024-02-26T07:09:02;7.70;99.90
19999;DHT22;10160;50.926;4.374;2024-02-26T07:11:28;7.70;99.90
19999;DHT22;10160;50.926;4.374;2024-02-26T07:13:53;7.70;99.90
19999;DHT22;10160;50.926;4.374;2024-02-26T07:16:19;7.60;99.90
19999;DHT22;10160;50.926;4.374;2024-02-26T07:18:45;7.50;99.90
19999;DHT22;10160;50.926;4.374;2024-02-26T07:21:11;7.50;99.90
19999;DHT22;10160;50.926;4.374;2024-02-26T07:23:37;7.60;99.90
19999;DHT22;10160;50.926;4.374;2024-02-26T07:26:03;7.50;99.90
19999;DHT22;10160;50.926;4.374;2024-02-26T07:28:28;7.60;99.90
19999;DHT22;10160;50.926;4.374;2024-02-26T07:30:54;7.60;99.90
19999;DHT22;10160;50.926;4.374;2024-02-26T07:33:20;7.70;99.90
19999;DHT22;10160;50.926;4.374;2024-02-26T07:35:46;7.70;99.90
19999;DHT22;10160;50.926;4.374;2024-02-26T07:38:12;7.70;99.90
19999;DHT22;10160;50.926;4.374;2024-02-26T07:40:39;7.70;99.90
19999;DHT22;10160;50.926;4.374;2024-02-26T07:43:05;7.70;99.90
19999;DHT22;10160;50.926;4.374;2024-02-26T07:45:30;7.60;99.90
19999;DHT22;10160;50.926;4.374;2024-02-26T07:47:56;7.70;99.90
19999;DHT22;10160;50.926;4.374;2024-02-26T07:50:21;7.60;99.90
19999;DHT22;10160;50.926;4.374;2024-02-26T07:52:47;7.60;99.90
19999;DHT22;10160;50.926;4.374;2024-02-26T07:55:13;7.60;99.90
19999;DHT22;10160;50.926;4.374;2024-02-26T07:57:42;7.60;99.90
19999;DHT22;10160;50.926;4.374;2024-02-26T08:00:09;7.70;99.90
19999;DHT22;10160;50.926;4.374;2024-02-26T08:02:36;7.70;99.90
19999;DHT22;10160;50.926;4.374;2024-02-26T08:05:01;7.70;99.90
19999;DHT22;10160;50.926;4.374;2024-02-26T08:07:27;7.80;99.90
19999;DHT22;10160;50.926;4.374;2024-02-26T08:09:54;7.80;99.90
19999;DHT22;10160;50.926;4.374;2024-02-26T08:12:19;7.80;99.90
19999;DHT22;10160;50.926;4.374;2024-02-26T08:14:45;7.80;99.90
19999;DHT22;10160;50.926;4.374;2024-02-26T08:17:11;7.70;99.90
19999;DHT22;10160;50.926;4.374;2024-02-26T08:19:36;7.70;99.90
19999;DHT22;10160;50.926;4.374;2024-02-26T08:22:02;7.70;99.90
19999;DHT22;10160;50.926;4.374;2024-02-26T08:24:28;7.70;99.90
19999;DHT22;10160;50.926;4.374;2024-02-26T08:26:54;7.70;99.90
19999;DHT22;10160;50.926;4.374;2024-02-26T08:29:19;7.70;99.90
19999;DHT22;10160;50.926;4.374;2024-02-26T08:31:45;7.70;99.90
19999;DHT22;10160;50.926;4.374;2024-02-26T08:34:11;7.60;99.90
19999;DHT22;10160;50.926;4.374;2024-02-26T08:36:36;7.60;99.90
19999;DHT22;10160;50.926;4.374;2024-02-26T08:39:02;7.70;99.90
19999;DHT22;10160;50.926;4.374;2024-02-26T08:41:28;7.70;99.90
19999;DHT22;10160;50.926;4.374;2024-02-26T08:43:54;7.60;99.90
19999;DHT22;10160;50.926;4.374;2024-02-26T08:46:20;7.60;99.90
19999;DHT22;10160;50.926;4.374;2024-02-26T08:48:46;7.60;99.90
19999;DHT22;10160;50.926;4.374;2024-02-26T08:51:11;7.70;99.90
19999;DHT22;10160;50.926;4.374;2024-02-26T08:53:39;7.80;99.90
19999;DHT22;10160;50.926;4.374;2024-02-26T08:56:05;7.80;99.90
19999;DHT22;10160;50.926;4.374;2024-02-26T08:58:31;7.80;99.90
19999;DHT22;10160;50.926;4.374;2024-02-26T09:00:56;7.70;99.90
19999;DHT22;10160;50.926;4.374;2024-02-26T09:03:22;7.80;99.90
19999;DHT22;10160;50.926;4.374;2024-02-26T09:05:48;7.80;99.90
19999;DHT22;10160;50.926;4.374;2024-02-26T09:08:14;7.70;99.90
19999;DHT22;10160;50.926;4.374;2024-02-26T09:10:40;7.70;99.90
19999;DHT22;10160;50.926;4.374;2024-02-26T09:13:06;7.80;99.90
19999;DHT22;10160;50.926;4.374;2024-02-26T09:15:32;7.90;99.90
19999;DHT22;10160;50.926;4.374;2024-02-26T09:17:57;7.80;99.90
19999;DHT22;10160;50.926;4.374;2024-02-26T09:20:23;7.90;99.90
19999;DHT22;10160;50.926;4.374;2024-02-26T09:22:49;7.90;99.90
19999;DHT22;10160;50.926;4.374;2024-02-26T09:25:16;7.80;99.90
19999;DHT22;10160;50.926;4.374;2024-02-26T09:27:46;7.90;99.90
19999;DHT22;10160;50.926;4.374;2024-02-26T09:30:12;8.00;99.90
19999;DHT22;10160;50.926;4.374;2024-02-26T09:32:38;7.90;99.90
19999;DHT22;10160;50.926;4.374;2024-02-26T09:35:05;7.90;99.90
19999;DHT22;10160;50.926;4.374;2024-02-26T09:37:31;7.90;99.90
19999;DHT22;10160;50.926;4.374;2024-02-26T09:39:56;7.80;99.90
19999;DHT22;10160;50.926;4.374;2024-02-26T09:42:25;7.70;99.90
19999;DHT22;10160;50.926;4.374;2024-02-26T09:44:54;7.70;99.90
19999;DHT22;10160;50.926;4.374;2024-02-26T09:47:23;7.70;99.90
19999;DHT22;10160;50.926;4.374;2024-02-26T09:49:53;7.80;99.90
19999;DHT22;10160;50.926;4.374;2024-02-26T09:52:20;7.70;99.90
19999;DHT22;10160;50.926;4.374;2024-02-26T09:54:47;7.70;99.90
19999;DHT22;10160;50.926;4.374;2024-02-26T09:57:15;7.70;99.90
19999;DHT22;10160;50.926;4.374;2024-02-26T09:59:43;7.80;99.90
19999;DHT22;10160;50.926;4.374;2024-02-26T10:02:13;7.70;99.90
19999;DHT22;10160;50.926;4.374;2024-02-26T10:04:40;7.80;99.90
19999;DHT22;10160;50.926;4.374;2024-02-26T10:07:10;7.70;99.90
19999;DHT22;10160;50.926;4.374;2024-02-26T10:09:36;7.60;99.90
19999;DHT22;10160;50.926;4.374;2024-02-26T10:12:02;7.70;99.90
19999;DHT22;10160;50.926;4.374;2024-02-26T10:14:28;7.70;99.90
19999;DHT22;10160;50.926;4.374;2024-02-26T10:16:54;7.70;99.90
19999;DHT22;10160;50.926;4.374;2024-02-26T10:19:27;7.80;99.90
19999;DHT22;10160;50.926;4.374;2024-02-26T10:22:00;7.80;99.90
19999;DHT22;10160;50.926;4.374;2024-02-26T10:24:30;7.70;99.90
19999;DHT22;10160;50.926;4.374;2024-02-26T10:26:56;7.70;99.90
19999;DHT22;10160;50.926;4.374;2024-02-26T10:29:24;7.50;99.90
19999;DHT22;10160;50.926;4.374;2024-02-26T10:31:51;7.60;99.90
19999;DHT22;10160;50.926;4.374;2024-02-26T10:34:17;7.60;99.90
19999;DHT22;10160;50.926;4.374;2024-02-26T10:36:43;7.60;99.90
19999;DHT22;10160;50.926;4.374;2024-02-26T10:39:11;7.60;99.90
19999;DHT22;10160;50.926;4.374;2024-02-26T10:41:37;7.70;99.90
19999;DHT22;10160;50.926;4.374;2024-02-26T10:44:04;7.70;99.90
19999;DHT22;10160;50.926;4.374;2024-02-26T10:46:29;7.70;99.90
19999;DHT22;10160;50.926;4.374;2024-02-26T10:48:56;7.70;99.90
19999;DHT22;10160;50.926;4.374;2024-02-26T10:51:31;7.60;99.90
19999;DHT22;10160;50.926;4.374;2024-02-26T10:53:58;7.60;99.90
19999;DHT22;10160;50.926;4.374;2024-02-26T10:56:28;7.60;99.90
19999;DHT22;10160;50.926;4.374;2024-02-26T10:58:55;7.70;99.90
19999;DHT22;10160;50.926;4.374;2024-02-26T11:01:21;7.70;99.90
19999;DHT22;10160;50.926;4.374;2024-02-26T11:03:52;7.40;99.90
19999;DHT22;10160;50.926;4.374;2024-02-26T11:06:19;7.30;99.90
19999;DHT22;10160;50.926;4.374;2024-02-26T11:08:53;7.40;99.90
19999;DHT22;10160;50.926;4.374;2024-02-26T11:11:20;7.30;99.90
19999;DHT22;10160;50.926;4.374;2024-02-26T11:13:48;7.40;99.90
19999;DHT22;10160;50.926;4.374;2024-02-26T11:16:18;7.40;99.90
19999;DHT22;10160;50.926;4.374;2024-02-26T11:18:43;7.40;99.90
19999;DHT22;10160;50.926;4.374;2024-02-26T11:21:15;7.40;99.90
19999;DHT22;10160;50.926;4.374;2024-02-26T11:23:41;7.40;99.90
19999;DHT22;10160;50.926;4.374;2024-02-26T11:26:08;7.30;99.90
19999;DHT22;10160;50.926;4.374;2024-02-26T11:28:35;7.30;99.90
19999;DHT22;10160;50.926;4.374;2024-02-26T11:31:02;7.40;99.90
19999;DHT22;10160;50.926;4.374;2024-02-26T11:33:30;7.50;99.90
19999;DHT22;10160;50.926;4.374;2024-02-26T11:35:56;7.50;99.90
19999;DHT22;10160;50.926;4.374;2024-02-26T11:38:24;7.50;99.90
19999;DHT22;10160;50.926;4.374;2024-02-26T11:40:52;7.50;99.90
19999;DHT22;10160;50.926;4.374;2024-02-26T11:43:22;7.50;99.90
19999;DHT22;10160;50.926;4.374;2024-02-26T11:45:49;7.50;99.90
19999;DHT22;10160;50.926;4.374;2024-02-26T11:48:24;7.50;99.90
19999;DHT22;10160;50.926;4.374;2024-02-26T11:50:54;7.60;99.90
19999;DHT22;10160;50.926;4.374;2024-02-26T11:53:27;7.70;99.90
19999;DHT22;10160;50.926;4.374;2024-02-26T11:56:21;7.70;99.90
19999;DHT22;10160;50.926;4.374;2024-02-26T12:02:02;7.70;99.90
19999;DHT22;10160;50.926;4.374;2024-02-26T12:04:30;7.60;99.90
19999;DHT22;10160;50.926;4.374;2024-02-26T12:07:00;7.60;99.90
19999;DHT22;10160;50.926;4.374;2024-02-26T12:09:40;7.70;99.90
19999;DHT22;10160;50.926;4.374;2024-02-26T12:12:10;7.70;99.90
19999;DHT22;10160;50.926;4.374;2024-02-26T12:14:40;7.70;99.90
19999;DHT22;10160;50.926;4.374;2024-02-26T12:17:07;7.60;99.90
19999;DHT22;10160;50.926;4.374;2024-02-26T12:19:35;7.70;99.90
19999;DHT22;10160;50.926;4.374;2024-02-26T12:22:02;7.60;99.90
19999;DHT22;10160;50.926;4.374;2024-02-26T12:24:28;7.70;99.90
19999;DHT22;10160;50.926;4.374;2024-02-26T12:26:53;7.80;99.90
19999;DHT22;10160;50.926;4.374;2024-02-26T12:29:19;7.80;99.90
19999;DHT22;10160;50.926;4.374;2024-02-26T12:31:45;7.80;99.90
19999;DHT22;10160;50.926;4.374;2024-02-26T12:34:11;7.80;99.90
19999;DHT22;10160;50.926;4.374;2024-02-26T12:36:37;7.60;99.90
19999;DHT22;10160;50.926;4.374;2024-02-26T12:39:04;7.60;99.90
19999;DHT22;10160;50.926;4.374;2024-02-26T12:41:33;7.70;99.90
19999;DHT22;10160;50.926;4.374;2024-02-26T12:43:59;7.70;99.90
19999;DHT22;10160;50.926;4.374;2024-02-26T12:46:25;7.70;99.90
19999;DHT22;10160;50.926;4.374;2024-02-26T12:48:51;7.70;99.90
19999;DHT22;10160;50.926;4.374;2024-02-26T12:51:16;7.70;99.90
19999;DHT22;10160;50.926;4.374;2024-02-26T12:53:44;7.70;99.90
19999;DHT22;10160;50.926;4.374;2024-02-26T12:56:11;7.70;99.90
19999;DHT22;10160;50.926;4.374;2024-02-26T12:58:40;7.60;99.90
19999;DHT22;10160;50.926;4.374;2024-02-26T13:01:07;7.50;99.90
19999;DHT22;10160;50.926;4.374;2024-02-26T13:03:42;7.50;99.90
19999;DHT22;10160;50.926;4.374;2024-02-26T13:06:08;7.50;99.90
19999;DHT22;10160;50.926;4.374;2024-02-26T13:08:34;7.50;99.90
19999;DHT22;10160;50.926;4.374;2024-02-26T13:11:00;7.50;99.90
19999;DHT22;10160;50.926;4.374;2024-02-26T13:13:26;7.40;99.90
19999;DHT22;10160;50.926;4.374;2024-02-26T13:16:05;7.30;99.90
19999;DHT22;10160;50.926;4.374;2024-02-26T13:18:32;7.40;99.90
19999;DHT22;10160;50.926;4.374;2024-02-26T13:21:15;7.30;99.90
19999;DHT22;10160;50.926;4.374;2024-02-26T13:23:41;7.30;99.90
19999;DHT22;10160;50.926;4.374;2024-02-26T13:26:07;7.40;99.90
19999;DHT22;10160;50.926;4.374;2024-02-26T13:28:33;7.40;99.90
19999;DHT22;10160;50.926;4.374;2024-02-26T13:31:00;7.40;99.90
19999;DHT22;10160;50.926;4.374;2024-02-26T13:33:27;7.40;99.90
19999;DHT22;10160;50.926;4.374;2024-02-26T13:35:55;7.40;99.90
19999;DHT22;10160;50.926;4.374;2024-02-26T13:38:21;7.40;99.90
19999;DHT22;10160;50.926;4.374;2024-02-26T13:40:46;7.40;99.90
19999;DHT22;10160;50.926;4.374;2024-02-26T13:43:12;7.50;99.90
19999;DHT22;10160;50.926;4.374;2024-02-26T13:45:38;7.40;99.90
19999;DHT22;10160;50.926;4.374;2024-02-26T13:48:06;7.30;99.90
19999;DHT22;10160;50.926;4.374;2024-02-26T13:50:32;7.30;99.90
19999;DHT22;10160;50.926;4.374;2024-02-26T13:52:58;7.40;99.90
19999;DHT22;10160;50.926;4.374;2024-02-26T13:55:25;7.40;99.90
19999;DHT22;10160;50.926;4.374;2024-02-26T13:57:57;7.40;99.90
19999;DHT22;10160;50.926;4.374;2024-02-26T14:00:23;7.50;99.90
19999;DHT22;10160;50.926;4.374;2024-02-26T14:02:50;7.60;99.90
19999;DHT22;10160;50.926;4.374;2024-02-26T14:05:15;7.70;99.90
19999;DHT22;10160;50.926;4.374;2024-02-26T14:07:42;7.80;99.90
19999;DHT22;10160;50.926;4.374;2024-02-26T14:10:08;7.80;99.90
19999;DHT22;10160;50.926;4.374;2024-02-26T14:12:35;7.80;99.90
19999;DHT22;10160;50.926;4.374;2024-02-26T14:15:01;7.80;99.90
19999;DHT22;10160;50.926;4.374;2024-02-26T14:17:30;7.80;99.90
19999;DHT22;10160;50.926;4.374;2024-02-26T14:19:55;7.70;99.90
19999;DHT22;10160;50.926;4.374;2024-02-26T14:22:21;7.70;99.90
19999;DHT22;10160;50.926;4.374;2024-02-26T14:24:47;7.70;99.90
19999;DHT22;10160;50.926;4.374;2024-02-26T14:27:13;7.70;99.90
19999;DHT22;10160;50.926;4.374;2024-02-26T14:29:43;7.70;99.90
19999;DHT22;10160;50.926;4.374;2024-02-26T14:32:09;7.70;99.90
19999;DHT22;10160;50.926;4.374;2024-02-26T14:34:35;7.70;99.90
19999;DHT22;10160;50.926;4.374;2024-02-26T14:37:01;7.70;99.90
19999;DHT22;10160;50.926;4.374;2024-02-26T14:39:27;7.70;99.90
19999;DHT22;10160;50.926;4.374;2024-02-26T14:41:54;7.70;99.90
19999;DHT22;10160;50.926;4.374;2024-02-26T14:44:20;7.80;99.90
19999;DHT22;10160;50.926;4.374;2024-02-26T14:46:46;7.70;99.90
19999;DHT22;10160;50.926;4.374;2024-02-26T14:49:12;7.70;99.90
19999;DHT22;10160;50.926;4.374;2024-02-26T14:51:38;7.70;99.90
19999;DHT22;10160;50.926;4.374;2024-02-26T14:54:04;7.80;99.90
19999;DHT22;10160;50.926;4.374;2024-02-26T14:56:29;7.80;99.90
19999;DHT22;10160;50.926;4.374;2024-02-26T14:58:55;7.80;99.90
19999;DHT22;10160;50.926;4.374;2024-02-26T15:01:21;7.80;99.90
19999;DHT22;10160;50.926;4.374;2024-02-26T15:03:47;7.80;99.90
19999;DHT22;10160;50.926;4.374;2024-02-26T15:06:13;7.90;99.90
19999;DHT22;10160;50.926;4.374;2024-02-26T15:08:39;7.90;99.90
19999;DHT22;10160;50.926;4.374;2024-02-26T15:11:05;7.80;99.90
19999;DHT22;10160;50.926;4.374;2024-02-26T15:13:30;7.70;99.90
19999;DHT22;10160;50.926;4.374;2024-02-26T15:15:56;7.70;99.90
19999;DHT22;10160;50.926;4.374;2024-02-26T15:18:22;7.80;99.90
19999;DHT22;10160;50.926;4.374;2024-02-26T15:20:47;7.80;99.90
19999;DHT22;10160;50.926;4.374;2024-02-26T15:23:13;7.70;99.90
19999;DHT22;10160;50.926;4.374;2024-02-26T15:25:39;7.80;99.90
19999;DHT22;10160;50.926;4.374;2024-02-26T15:28:07;7.80;99.90
19999;DHT22;10160;50.926;4.374;2024-02-26T15:30:32;7.80;99.90
19999;DHT22;10160;50.926;4.374;2024-02-26T15:32:59;7.70;99.90
19999;DHT22;10160;50.926;4.374;2024-02-26T15:35:25;7.60;99.90
19999;DHT22;10160;50.926;4.374;2024-02-26T15:37:51;7.60;99.90
19999;DHT22;10160;50.926;4.374;2024-02-26T15:40:18;7.60;99.90
19999;DHT22;10160;50.926;4.374;2024-02-26T15:42:45;7.60;99.90